Accueil
METAR-TAF:

METAR-TAF

Aéroports :

Hillsdale Municipal Airport

Hillsdale, Michigan, États-Unis

latitude: 41-55-17N, longitude: 084-35-09W, altitude: 360 m

Observation

Le bulletin a été fait il y a 17 minutes, à 09:15 UTC
Vent 6 kt de sud
Température 14°C
Humidité 88%
Pression 1011 hPa
Visibilité: 16.1 km
Nuages fragmentés à une hauteur de 2400 ft
Nuages fragmentés à une hauteur de 4800 ft
Ciel couvert à une hauteur de 6500 ft

METAR: KJYM 210915Z AUTO 19006KT 10SM BKN024 BKN048 OVC065 14/12 A2984 RMK AO2 T01350123

Heure: 05:32 (09:32 UTC)


TAF: absent

Observations et prévisions météorologiques de plus de 4000 aéroports (messages METAR et TAF).

Les stations disponibles sont représentées par des disques jaunes et rouges sur la carte.

Passer la souris dessus pour voir le nom de la station.

Cliquer dessus pour voir les observations et prévisions météorologiques.

Pour changer de carte: cliquez sur les boutons verts avec une croix noire pour zoomer, sur le bouton vert avec un tiret pour effectuer un zoom arrière, ou sur les flèches vertes pour les cartes adjacentes.


METAR-TAF: